Latest Weather Observations for McCluer Island

IDD60801

Issued at 10:31 pm CST Friday 27 March 2015 (issued every 30 minutes, with the page automatically refreshed every 10 minutes)

About weather observations | Map of weather stations | Latest weather observations for NT | Other Formats
Station Details ID: 014274 Name: MCCLUER ISLAND Lat: -11.05 Lon: 132.98 Height: 1.4 m
Data from the previous 72 hours. | See also: Recent months at McCluer Island
Date/Time
CST
Temp
°C
App
Temp
°C
Dew
Point
Rel
Hum
%
Delta-T
°C
Wind Press
QNH
hPa
Press
MSL
hPa
Rain
since 9 am
mm
Dir
 
Spd
km/h
Gust
km/h
Spd
kts
Gust
kts
27/10:30pm 28.0 - 29.2 - - NE 2 7 1 4 1013.6 - 0.0
27/10:00pm 28.7 - 29.9 - - ENE 6 7 3 4 1013.5 - 0.0
27/09:30pm 28.6 - 29.8 - - ENE 4 7 2 4 1013.6 - 0.0
27/09:00pm 28.9 - 30.1 - - ENE 7 9 4 5 1013.4 1013.4 0.0
27/08:30pm 29.1 - 30.3 - - ENE 9 13 5 7 1013.3 - 0.0
27/08:00pm 28.9 - 30.1 - - ENE 9 11 5 6 1012.8 - 0.0
27/07:30pm 29.0 - 30.2 - - ENE 11 15 6 8 1012.2 - 0.0
27/07:00pm 29.1 - 30.3 - - ENE 13 15 7 8 1011.9 - 0.0
27/06:30pm 29.0 - 30.2 - - ENE 9 11 5 6 1011.4 - 0.0
27/06:00pm 29.1 - 30.3 - - ENE 11 13 6 7 1011.0 1011.0 0.0
27/05:30pm 29.5 - 30.7 - - ENE 11 15 6 8 1011.0 - 0.0
27/05:00pm 30.4 - 31.6 - - N 2 7 1 4 1010.7 - 0.0
27/04:30pm 30.8 - 32.0 - - WNW 9 11 5 6 1010.2 - 0.0
27/04:00pm 31.2 - 32.4 - - NW 9 11 5 6 1010.4 - 0.0
27/03:30pm 30.9 - 32.1 - - NNW 4 9 2 5 1010.9 - 0.0
27/03:00pm 30.0 - 31.2 - - N 7 11 4 6 1011.0 1011.0 0.0
27/02:30pm 30.4 - 31.6 - - N 7 9 4 5 1011.3 - 0.0
27/02:00pm 30.6 - 31.8 - - NNE 4 7 2 4 1011.9 - 0.0
27/01:30pm 30.1 - 31.3 - - NNE 6 7 3 4 1012.5 - 0.0
27/01:00pm 30.1 - 31.3 - - N 7 9 4 5 1012.9 - 0.0
27/12:30pm 29.7 - 30.9 - - ENE 7 9 4 5 1013.3 - 0.0
27/12:00pm 29.3 - 30.5 - - NE 9 11 5 6 1013.7 1013.7 0.0
27/11:30am 29.2 - 30.4 - - ENE 9 11 5 6 1014.1 - 0.0
27/11:00am 29.0 - 30.2 - - ENE 9 11 5 6 1014.5 - 0.0
27/10:30am 29.2 - 30.4 - - ENE 9 11 5 6 1014.8 - 0.0
27/10:00am 29.2 - - - - ENE 11 13 6 7 1015.1 - 0.0
27/09:30am 28.6 - 29.8 - - ENE 11 13 6 7 1015.4 - 0.0
27/09:00am 28.3 - 29.5 - - NE 15 17 8 9 1015.2 1015.2 1.4
27/08:30am 28.2 - 29.4 - - NE 9 20 5 11 1015.1 - 1.4
27/08:00am 28.1 - - - - ENE 19 22 10 12 1014.6 - 1.4
27/07:30am 28.0 - - - - CALM 0 6 0 3 1014.1 - 1.4
27/07:00am 27.8 - 29.0 - - ENE 2 20 1 11 1013.6 - 1.4
27/06:30am 27.9 - 29.1 - - ENE 20 24 11 13 1013.2 - 1.4
27/06:00am 27.8 - 29.0 - - NE 22 26 12 14 1012.7 1012.7 1.4
27/05:30am 27.6 - - - - NE 20 24 11 13 1012.3 - 1.4
27/05:00am 27.7 - - - - ENE 20 24 11 13 1012.1 - 1.4
27/04:30am 27.7 - 28.9 - - ENE 22 26 12 14 1012.2 - 1.4
27/04:00am 27.7 - - - - NE 22 26 12 14 1012.3 - 1.4
27/03:30am 27.8 - 29.0 - - ENE 24 28 13 15 1012.5 - 1.4
27/03:00am 27.9 - - - - ENE 26 30 14 16 1012.8 1012.8 1.4
27/02:30am 27.9 - - - - ENE 24 30 13 16 1013.2 - 1.4
27/02:00am 28.1 - - - - ENE 24 26 13 14 1013.4 - 1.4
27/01:30am 28.0 - - - - ENE 24 28 13 15 1013.8 - 1.4
27/01:00am 28.0 - 29.2 - - ENE 26 30 14 16 1013.8 - 1.4
27/12:30am 28.1 - - - - ENE 26 32 14 17 1014.1 - 1.4
27/12:00am 28.2 - 29.4 - - ENE 26 30 14 16 1014.4 1014.4 1.4
 
Date/Time
CST
Temp
°C
App
Temp
°C
Dew
Point
Rel
Hum
%
Delta-T
°C
Wind Press
QNH
hPa
Press
MSL
hPa
Rain
since 9 am
mm
Dir
 
Spd
km/h
Gust
km/h
Spd
kts
Gust
kts
26/11:30pm 28.2 - - - - NE 30 33 16 18 1014.5 - 1.4
26/11:00pm 28.2 - - - - NE 28 35 15 19 1014.5 - 1.4
26/10:30pm 28.4 - 29.6 - - NNE 26 30 14 16 1014.6 - 1.4
26/10:00pm 28.5 - - - - NNE 22 28 12 15 1014.6 - 1.4
26/09:30pm 28.5 - - - - NNE 24 28 13 15 1014.2 - 1.4
26/09:00pm 28.5 - - - - NNE 24 28 13 15 1014.0 1014.0 1.4
26/08:30pm 28.6 - - - - NNE 28 35 15 19 1013.7 - 1.4
26/08:00pm 28.4 - - - - N 30 33 16 18 1013.4 - 1.4
26/07:30pm 28.3 - - - - N 28 33 15 18 1012.7 - 1.4
26/07:00pm 28.2 - - - - N 24 28 13 15 1012.5 - 1.4
26/06:30pm 28.1 - 29.3 - - N 24 28 13 15 1012.3 - 1.4
26/06:00pm 28.2 - 29.3 - - NNE 24 26 13 14 1011.9 1011.9 1.4
26/05:30pm 27.8 - 29.0 - - NNE 22 26 12 14 1011.8 - 1.4
26/05:00pm 27.1 - 28.3 - - NNE 28 33 15 18 1011.8 - 1.4
26/04:30pm 28.0 - - - - ENE 26 30 14 16 1011.5 - 1.4
26/04:00pm 27.9 - - - - ENE 24 28 13 15 1011.3 - 1.4
26/03:30pm 27.7 - 28.9 - - ENE 24 28 13 15 1011.4 - 1.4
26/03:00pm 27.4 - 28.6 - - ENE 26 28 14 15 1011.5 1011.5 1.4
26/02:30pm 27.7 - - - - ENE 26 30 14 16 1011.9 - 1.4
26/02:00pm 27.4 - - - - ENE 26 28 14 15 1011.7 - 1.4
26/01:30pm 27.1 - - - - ENE 26 32 14 17 1012.2 - 1.4
26/01:00pm 26.7 - 27.9 - - NE 22 26 12 14 1012.7 - 1.4
26/12:30pm 27.1 - 28.3 - - ENE 22 28 12 15 1013.2 - 1.4
26/12:00pm 27.7 - 28.9 - - NE 15 19 8 10 1013.5 1013.5 1.4
26/11:30am 27.1 - 28.3 - - NNW 2 7 1 4 1013.6 - 1.4
26/11:00am 26.6 - 27.8 - - NNW 17 24 9 13 1014.1 - 1.0
26/10:30am 29.3 - 30.5 - - NNE 13 15 7 8 1014.0 - 0.0
26/10:00am 28.9 - 30.1 - - NNE 13 17 7 9 1014.0 - 0.0
26/09:30am 28.7 - 29.9 - - N 11 15 6 8 1013.9 - 0.0
26/09:00am 28.8 - 30.0 - - N 13 15 7 8 1013.7 1013.7 3.6
26/08:30am 28.2 - 29.4 - - N 15 17 8 9 1013.2 - 3.6
26/08:00am 28.2 - 29.4 - - NE 13 15 7 8 1012.7 - 3.6
26/07:30am 27.8 - 29.0 - - N 19 22 10 12 1012.4 - 3.6
26/07:00am 27.6 - 28.8 - - N 20 24 11 13 1012.2 - 3.6
26/06:30am 27.6 - 28.8 - - N 22 28 12 15 1011.7 - 3.6
26/06:00am 27.3 - 28.5 - - N 24 28 13 15 1011.7 1011.7 3.6
26/05:30am 27.2 - 28.4 - - N 33 41 18 22 1011.7 - 3.6
26/05:21am 27.7 - 28.9 - - N 37 41 20 22 1011.4 - 3.6
26/05:00am 27.5 - 28.7 - - N 17 20 9 11 1011.2 - 3.4
26/04:30am 26.8 - 28.0 - - NW 20 28 11 15 1010.9 - 3.4
26/04:00am 27.7 - 28.9 - - NNW 19 20 10 11 1010.7 - 3.4
26/03:30am 27.7 - 28.9 - - NNW 22 26 12 14 1010.4 - 3.4
26/03:00am 26.9 - 28.1 - - NNW 24 30 13 16 1010.6 1010.6 3.4
26/02:30am 26.5 - 27.7 - - NNW 22 28 12 15 1010.8 - 3.4
26/02:00am 26.1 - 27.3 - - NW 28 35 15 19 1011.2 - 3.0
26/01:30am 26.8 - 28.0 - - WSW 20 28 11 15 1011.2 - 1.8
26/01:00am 26.8 - 28.0 - - NW 22 32 12 17 1011.5 - 1.8
26/12:30am 29.0 - 30.2 - - N 22 28 12 15 1011.6 - 1.6
26/12:00am 28.9 - 30.1 - - N 20 24 11 13 1011.8 1011.8 1.6
 
Date/Time
CST
Temp
°C
App
Temp
°C
Dew
Point
Rel
Hum
%
Delta-T
°C
Wind Press
QNH
hPa
Press
MSL
hPa
Rain
since 9 am
mm
Dir
 
Spd
km/h
Gust
km/h
Spd
kts
Gust
kts
25/11:30pm 28.8 - 30.0 - - N 20 24 11 13 1012.0 - 1.6
25/11:00pm 28.8 - 30.0 - - N 20 26 11 14 1011.9 - 1.6
25/10:30pm 28.8 - 30.0 - - N 20 26 11 14 1011.8 - 1.6
25/10:00pm 28.9 - 30.1 - - N 24 30 13 16 1011.7 - 1.6
25/09:30pm 29.0 - 30.2 - - N 20 24 11 13 1011.6 - 1.6
25/09:00pm 28.8 - 30.0 - - N 22 26 12 14 1011.2 1011.2 1.6
25/08:30pm 28.7 - 29.9 - - N 22 28 12 15 1010.9 - 1.6
25/08:00pm 28.9 - 30.1 - - N 22 24 12 13 1010.6 - 0.4
25/07:30pm 28.1 - 29.3 - - N 20 28 11 15 1010.5 - 0.4
25/07:00pm 29.2 - 30.4 - - N 26 30 14 16 1010.1 - 0.0
25/06:30pm 29.3 - 30.5 - - N 22 26 12 14 1009.6 - 0.0
25/06:00pm 29.1 - 30.3 - - NNE 17 19 9 10 1009.4 1009.4 0.0
25/05:30pm 29.0 - 30.2 - - N 13 17 7 9 1009.2 - 0.0
25/05:00pm 29.3 - 30.5 - - N 13 17 7 9 1009.1 - 0.0
25/04:30pm 29.0 - 30.2 - - NNE 15 17 8 9 1008.9 - 0.0
25/04:00pm 29.3 - 30.5 - - N 15 15 8 8 1009.0 - 0.0
25/03:30pm 28.8 - 30.0 - - NNE 22 28 12 15 1009.0 - 0.0
25/03:00pm 29.0 - 30.2 - - N 22 26 12 14 1008.8 1008.8 0.0
25/02:30pm 30.0 - 31.2 - - NNE 13 17 7 9 1008.9 - 0.0
25/02:00pm 30.1 - 31.3 - - N 9 13 5 7 1009.3 - 0.0
25/01:30pm 30.1 - 31.3 - - W 9 11 5 6 1009.4 - 0.0
25/01:00pm 30.4 - 31.6 - - NNW 9 13 5 7 1010.1 - 0.0
25/12:30pm 30.1 - 31.3 - - NNW 7 11 4 6 1010.5 - 0.0
25/12:00pm 30.3 - 31.5 - - WNW 7 11 4 6 1010.8 1010.8 0.0
25/11:30am 29.8 - 31.0 - - NW 11 13 6 7 1011.1 - 0.0
25/11:00am 29.6 - 30.8 - - WNW 13 15 7 8 1011.2 - 0.0
25/10:30am 29.1 - 30.3 - - NW 13 17 7 9 1011.4 - 0.0
25/10:00am 29.4 - 30.6 - - NW 15 19 8 10 1011.3 - 0.0
25/09:30am 29.3 - 30.5 - - NW 15 19 8 10 1011.2 - 0.0
25/09:00am 28.4 - 29.6 - - NW 17 20 9 11 1011.1 1011.1 0.8
25/08:30am 27.4 - - - - NW 13 17 7 9 1010.8 - 0.8
25/08:00am 26.3 - - - - NW 17 20 9 11 1010.6 - 0.8
25/07:30am 26.0 - 27.1 - - WNW 19 24 10 13 1010.3 - 0.6
25/07:00am 27.5 - 28.7 - - NW 17 22 9 12 1009.6 - 0.2
25/06:30am 27.3 - 28.5 - - NW 20 26 11 14 1009.3 - 0.2
25/06:00am 27.2 - 28.4 - - NW 22 26 12 14 1008.9 1008.9 0.2
25/05:30am 27.1 - 28.3 - - NW 20 24 11 13 1008.7 - 0.2
25/05:00am 27.0 - 28.2 - - WNW 20 24 11 13 1008.3 - 0.2
25/04:30am 26.9 - 28.1 - - WNW 22 26 12 14 1008.2 - 0.2
25/04:00am 27.0 - 28.2 - - WNW 26 32 14 17 1008.2 - 0.2
25/03:30am 27.0 - 28.2 - - W 30 33 16 18 1008.2 - 0.2
25/03:00am 27.2 - 28.4 - - W 28 32 15 17 1008.3 1008.3 0.2
25/02:30am 26.9 - 28.1 - - WNW 26 30 14 16 1008.4 - 0.2
25/02:00am 26.1 - 27.3 - - WNW 28 37 15 20 1008.5 - 0.2
25/01:30am 27.3 - 28.5 - - NW 20 26 11 14 1008.6 - 0.0
25/01:00am 27.2 - 28.4 - - NW 20 26 11 14 1009.0 - 0.0
25/12:30am 27.2 - 28.4 - - NW 20 26 11 14 1009.3 - 0.0
25/12:00am 27.0 - 28.2 - - WNW 20 24 11 13 1009.4 1009.4 0.0
 
Date/Time
CST
Temp
°C
App
Temp
°C
Dew
Point
Rel
Hum
%
Delta-T
°C
Wind Press
QNH
hPa
Press
MSL
hPa
Rain
since 9 am
mm
Dir
 
Spd
km/h
Gust
km/h
Spd
kts
Gust
kts
24/11:30pm 26.9 - 28.1 - - WNW 20 28 11 15 1009.6 - 0.0
24/11:00pm 27.0 - 28.2 - - W 30 39 16 21 1009.8 - 0.0

Other Formats:

Comma delimited format used in spreadsheet applications
http://www.bom.gov.au/fwo/IDD60801/IDD60801.94135.axf

JavaScript Object Notation format (JSON) in row-major order
http://www.bom.gov.au/fwo/IDD60801/IDD60801.94135.json